createdAt,value
2019-04-04T00:01:48.904Z,49.14
2019-04-04T00:06:51.275Z,49.39
2019-04-04T00:11:53.527Z,49.65
2019-04-04T00:16:59.991Z,49.68
2019-04-04T00:22:05.010Z,49.96
2019-04-04T00:27:11.173Z,50.75
2019-04-04T00:32:15.525Z,51.44
2019-04-04T00:37:21.875Z,52.33
2019-04-04T00:42:23.956Z,53.20
2019-04-04T00:47:26.036Z,53.49
2019-04-04T00:52:30.250Z,53.83
2019-04-04T00:57:32.332Z,53.92
2019-04-04T01:02:34.489Z,54.26
2019-04-04T01:07:36.587Z,54.56
2019-04-04T01:12:38.691Z,54.86
2019-04-04T01:17:40.737Z,55.24
2019-04-04T01:22:42.820Z,55.73
2019-04-04T01:27:44.925Z,56.27
2019-04-04T01:32:48.143Z,56.45
2019-04-04T01:37:50.858Z,56.86
2019-04-04T01:42:52.909Z,57.24
2019-04-04T01:47:55.033Z,57.35
2019-04-04T01:52:59.248Z,57.84
2019-04-04T01:58:01.098Z,57.88
2019-04-04T02:03:03.146Z,58.16
2019-04-04T02:08:07.614Z,58.09
2019-04-04T02:13:10.472Z,58.44
2019-04-04T02:18:12.751Z,58.59
2019-04-04T02:23:14.819Z,58.21
2019-04-04T02:28:16.874Z,58.13
2019-04-04T02:33:18.940Z,57.92
2019-04-04T02:38:21.011Z,57.79
2019-04-04T02:43:27.386Z,57.50
2019-04-04T02:48:27.079Z,57.70
2019-04-04T02:53:29.274Z,57.64
2019-04-04T02:58:31.378Z,57.91
2019-04-04T03:03:33.510Z,57.74
2019-04-04T03:08:37.728Z,57.79
2019-04-04T03:13:39.777Z,57.86
2019-04-04T03:18:41.835Z,58.13
2019-04-04T03:23:43.916Z,58.20
2019-04-04T03:28:45.954Z,57.86
2019-04-04T03:33:48.031Z,57.51
2019-04-04T03:38:50.112Z,57.31
2019-04-04T03:43:52.217Z,57.43
2019-04-04T03:48:54.499Z,57.51
2019-04-04T03:54:00.731Z,57.23
2019-04-04T03:59:02.832Z,57.19
2019-04-04T04:04:04.973Z,57.18
2019-04-04T04:09:07.110Z,56.95
2019-04-04T04:14:09.371Z,56.85
2019-04-04T04:19:11.483Z,56.81
2019-04-04T04:24:13.916Z,57.21
2019-04-04T04:29:16.005Z,57.26
2019-04-04T04:34:18.091Z,57.05
2019-04-04T04:39:20.074Z,57.28
2019-04-04T04:44:22.119Z,57.24
2019-04-04T04:49:24.207Z,57.27
2019-04-04T04:54:26.283Z,57.75
2019-04-04T04:59:28.325Z,57.68
2019-04-04T05:04:30.408Z,57.79
2019-04-04T05:09:32.577Z,57.73
2019-04-04T05:14:34.683Z,57.86
2019-04-04T05:19:36.789Z,57.70
2019-04-04T05:24:38.839Z,57.68
2019-04-04T05:29:40.900Z,57.52
2019-04-04T05:34:42.967Z,57.65
2019-04-04T05:39:46.962Z,57.59
2019-04-04T05:44:48.954Z,57.34
2019-04-04T05:49:50.988Z,57.35
2019-04-04T05:54:53.049Z,57.71
2019-04-04T05:59:56.064Z,57.34
2019-04-04T06:04:58.567Z,57.28
2019-04-04T06:10:00.655Z,57.16
2019-04-04T06:15:03.660Z,56.83
2019-04-04T06:20:08.020Z,56.68
2019-04-04T06:25:10.053Z,56.79
2019-04-04T06:30:12.372Z,57.13
2019-04-04T06:35:15.562Z,56.70
2019-04-04T06:40:18.330Z,56.67
2019-04-04T06:45:20.411Z,56.79
2019-04-04T06:50:22.520Z,56.54
2019-04-04T06:55:28.317Z,56.51
2019-04-04T07:00:28.659Z,56.23
2019-04-04T07:05:30.762Z,56.13
2019-04-04T07:10:32.912Z,56.21
2019-04-04T07:15:46.279Z,55.87
2019-04-04T07:20:39.017Z,55.52
2019-04-04T07:25:41.506Z,55.14
2019-04-04T07:30:43.565Z,55.04
2019-04-04T07:35:48.919Z,54.63
2019-04-04T07:40:51.641Z,54.21
2019-04-04T07:45:55.250Z,53.70
2019-04-04T07:50:58.566Z,53.21
2019-04-04T07:56:01.553Z,52.67
2019-04-04T08:01:03.617Z,51.84
2019-04-04T08:06:05.740Z,51.55
2019-04-04T08:11:07.901Z,51.34
2019-04-04T08:16:09.986Z,50.84
2019-04-04T08:21:12.087Z,50.29
2019-04-04T08:26:14.068Z,51.13
2019-04-04T08:31:16.156Z,50.08
2019-04-04T08:36:18.496Z,48.93
2019-04-04T08:41:20.633Z,48.66
2019-04-04T08:46:26.906Z,48.05
2019-04-04T08:51:31.297Z,47.38
2019-04-04T08:56:33.449Z,47.77
2019-04-04T09:01:35.540Z,47.04
2019-04-04T09:06:37.668Z,47.01
2019-04-04T09:11:39.746Z,46.45
2019-04-04T09:16:41.876Z,46.56
2019-04-04T09:21:43.922Z,46.70
2019-04-04T09:26:46.002Z,46.48
2019-04-04T09:31:48.098Z,46.99
2019-04-04T09:36:50.174Z,46.63
2019-04-04T09:41:52.335Z,46.88
2019-04-04T09:47:04.854Z,46.94
2019-04-04T09:51:58.307Z,46.91
2019-04-04T09:57:00.381Z,46.51
2019-04-04T10:02:02.633Z,46.56
2019-04-04T10:07:04.715Z,46.73
2019-04-04T10:12:06.843Z,46.11
2019-04-04T10:17:08.967Z,45.70
2019-04-04T10:22:11.076Z,45.92
2019-04-04T10:27:13.188Z,45.69
2019-04-04T10:32:15.466Z,46.05
2019-04-04T10:37:17.522Z,45.53
2019-04-04T10:42:19.726Z,45.68
2019-04-04T10:47:21.783Z,46.13
2019-04-04T10:52:23.944Z,46.33
2019-04-04T10:57:25.995Z,46.28
2019-04-04T11:02:28.111Z,46.25
2019-04-04T11:07:30.217Z,46.31
2019-04-04T11:12:34.523Z,47.33
2019-04-04T11:17:36.807Z,46.77
2019-04-04T11:22:38.915Z,46.60
2019-04-04T11:27:41.008Z,46.55
2019-04-04T11:32:43.098Z,47.93
2019-04-04T11:37:45.222Z,47.99
2019-04-04T11:42:47.186Z,47.20
2019-04-04T11:47:49.248Z,46.87
2019-04-04T11:52:51.328Z,46.73
2019-04-04T11:57:53.487Z,47.11
2019-04-04T12:02:55.609Z,47.00
2019-04-04T12:07:57.762Z,47.16
2019-04-04T12:12:59.850Z,47.15
2019-04-04T12:18:01.934Z,46.72
2019-04-04T12:23:04.005Z,46.77
2019-04-04T12:28:06.050Z,46.74
2019-04-04T12:33:08.187Z,46.73
2019-04-04T12:38:10.220Z,46.77
2019-04-04T12:43:12.280Z,46.63
2019-04-04T12:48:14.442Z,46.33
2019-04-04T12:53:16.521Z,46.27
2019-04-04T12:58:18.627Z,46.48
2019-04-04T13:03:22.446Z,46.09
2019-04-04T13:08:24.770Z,46.11
2019-04-04T13:13:26.903Z,45.86
2019-04-04T13:18:31.344Z,45.76
2019-04-04T13:23:35.232Z,45.56
2019-04-04T13:28:37.268Z,45.46
2019-04-04T13:33:39.324Z,44.76
2019-04-04T13:38:41.413Z,44.96
2019-04-04T13:43:43.491Z,44.35
2019-04-04T13:48:45.554Z,43.87
2019-04-04T13:53:47.621Z,43.06
2019-04-04T13:58:51.480Z,42.70
2019-04-04T14:03:53.569Z,40.09
2019-04-04T14:08:55.723Z,38.60
2019-04-04T14:13:58.867Z,37.73
2019-04-04T14:19:01.301Z,36.94
2019-04-04T14:24:13.017Z,36.80
2019-04-04T14:29:07.940Z,36.64
2019-04-04T14:34:11.661Z,35.14
2019-04-04T14:39:14.509Z,34.81
2019-04-04T14:44:16.709Z,33.90
2019-04-04T14:49:18.833Z,33.78
2019-04-04T14:54:20.919Z,34.03
2019-04-04T14:59:23.069Z,33.56
2019-04-04T15:04:25.189Z,33.68
2019-04-04T15:09:27.252Z,33.75
2019-04-04T15:14:29.365Z,33.78
2019-04-04T15:19:33.890Z,33.83
2019-04-04T15:24:35.991Z,33.53
2019-04-04T15:29:38.133Z,33.66
2019-04-04T15:34:40.256Z,33.67
2019-04-04T15:39:42.324Z,33.53
2019-04-04T15:44:44.461Z,33.65
2019-04-04T15:49:46.533Z,33.61
2019-04-04T15:54:48.605Z,33.76
2019-04-04T15:59:50.751Z,33.82
2019-04-04T16:04:52.863Z,33.78
2019-04-04T16:09:54.975Z,33.74
2019-04-04T16:14:57.051Z,33.81
2019-04-04T16:19:59.133Z,33.89
2019-04-04T16:25:01.315Z,34.01
2019-04-04T16:30:03.647Z,34.07
2019-04-04T16:35:05.895Z,34.23
2019-04-04T16:40:09.850Z,34.18
2019-04-04T16:45:14.865Z,34.26
2019-04-04T16:50:17.232Z,34.39
2019-04-04T16:55:19.346Z,34.72
2019-04-04T17:00:22.281Z,35.29
2019-04-04T17:05:24.369Z,35.76
2019-04-04T17:10:28.184Z,36.16
2019-04-04T17:15:30.484Z,36.44
2019-04-04T17:20:32.667Z,36.64
2019-04-04T17:25:34.716Z,39.98
2019-04-04T17:30:36.865Z,42.78
2019-04-04T17:35:41.937Z,44.54
2019-04-04T17:40:44.365Z,46.42
2019-04-04T17:45:47.145Z,47.95
2019-04-04T17:50:49.421Z,49.43
2019-04-04T17:55:51.955Z,50.52
2019-04-04T18:00:55.551Z,51.45
2019-04-04T18:05:57.635Z,52.07
2019-04-04T18:10:59.686Z,52.77
2019-04-04T18:16:04.080Z,53.21
2019-04-04T18:21:06.204Z,54.02
2019-04-04T18:26:08.284Z,54.84
2019-04-04T18:31:10.449Z,55.13
2019-04-04T18:36:14.162Z,55.67
2019-04-04T18:41:16.211Z,56.15
2019-04-04T18:46:18.306Z,56.64
2019-04-04T18:51:20.353Z,56.85
2019-04-04T18:56:22.467Z,56.69
2019-04-04T19:01:26.398Z,56.62
2019-04-04T19:06:31.545Z,56.63
2019-04-04T19:11:33.633Z,56.79
2019-04-04T19:16:35.693Z,56.92
2019-04-04T19:21:37.831Z,56.92
2019-04-04T19:26:39.909Z,57.07
2019-04-04T19:31:41.970Z,57.35
2019-04-04T19:36:44.169Z,57.30
2019-04-04T19:41:46.214Z,57.60
2019-04-04T19:46:48.265Z,57.72
2019-04-04T19:51:50.333Z,57.95
2019-04-04T19:56:52.376Z,58.19
2019-04-04T20:01:54.457Z,58.46
2019-04-04T20:06:56.497Z,58.64
2019-04-04T20:11:58.636Z,58.95
2019-04-04T20:17:00.744Z,59.19
2019-04-04T20:22:02.817Z,59.49
2019-04-04T20:27:04.919Z,59.74
2019-04-04T20:32:07.106Z,59.77
2019-04-04T20:37:09.258Z,59.85
2019-04-04T20:42:11.328Z,60.43
2019-04-04T20:47:13.408Z,60.61
2019-04-04T20:52:16.643Z,61.04
2019-04-04T20:57:18.710Z,61.43
2019-04-04T21:02:20.775Z,61.56
2019-04-04T21:07:22.842Z,61.62
2019-04-04T21:12:24.902Z,61.74
2019-04-04T21:17:26.824Z,61.57
2019-04-04T21:22:28.976Z,61.46
2019-04-04T21:27:31.007Z,61.53
2019-04-04T21:32:33.056Z,61.35
2019-04-04T21:37:35.186Z,61.06
2019-04-04T21:42:37.273Z,61.12
2019-04-04T21:47:39.354Z,61.16
2019-04-04T21:52:42.680Z,61.25
2019-04-04T21:57:44.740Z,61.16
2019-04-04T22:02:46.803Z,61.12
2019-04-04T22:07:48.908Z,60.95
2019-04-04T22:12:50.969Z,60.97
2019-04-04T22:17:53.039Z,61.04
2019-04-04T22:22:56.049Z,60.89
2019-04-04T22:27:58.114Z,61.02
2019-04-04T22:33:01.808Z,60.99
2019-04-04T22:38:04.179Z,60.96
2019-04-04T22:43:06.261Z,60.95
2019-04-04T22:48:08.345Z,60.73
2019-04-04T22:53:10.430Z,60.62
2019-04-04T22:58:12.498Z,60.69
2019-04-04T23:03:15.086Z,60.76
2019-04-04T23:08:17.192Z,60.89
2019-04-04T23:13:19.276Z,60.71
2019-04-04T23:18:21.322Z,60.89
2019-04-04T23:23:23.416Z,60.93
2019-04-04T23:28:25.499Z,60.66
2019-04-04T23:33:27.572Z,60.52
2019-04-04T23:38:29.677Z,60.43
2019-04-04T23:43:31.720Z,60.34
2019-04-04T23:48:33.764Z,60.26
2019-04-04T23:53:35.794Z,60.13
2019-04-04T23:58:37.867Z,60.20
